sensor_id;sensor_type;location;lat;lon;timestamp;P1;durP1;ratioP1;P2;durP2;ratioP2
49340;SDS011;35209;51.050;13.678;2023-06-10T00:00:05;7.72;;;7.28;;
49340;SDS011;35209;51.050;13.678;2023-06-10T00:05:14;7.55;;;7.10;;
49340;SDS011;35209;51.050;13.678;2023-06-10T00:10:17;8.18;;;7.68;;
49340;SDS011;35209;51.050;13.678;2023-06-10T00:15:19;9.18;;;8.55;;
49340;SDS011;35209;51.050;13.678;2023-06-10T00:20:21;8.35;;;7.82;;
49340;SDS011;35209;51.050;13.678;2023-06-10T00:25:26;7.70;;;7.00;;
49340;SDS011;35209;51.050;13.678;2023-06-10T00:30:28;7.25;;;6.85;;
49340;SDS011;35209;51.050;13.678;2023-06-10T00:35:30;8.07;;;7.57;;
49340;SDS011;35209;51.050;13.678;2023-06-10T00:40:38;9.52;;;8.75;;
49340;SDS011;35209;51.050;13.678;2023-06-10T00:45:42;8.25;;;7.75;;
49340;SDS011;35209;51.050;13.678;2023-06-10T00:50:44;8.02;;;7.43;;
49340;SDS011;35209;51.050;13.678;2023-06-10T00:55:48;9.70;;;8.48;;
49340;SDS011;35209;51.050;13.678;2023-06-10T01:00:49;8.18;;;7.68;;
49340;SDS011;35209;51.050;13.678;2023-06-10T01:06:17;8.57;;;7.97;;
49340;SDS011;35209;51.050;13.678;2023-06-10T01:11:36;8.55;;;8.05;;
49340;SDS011;35209;51.050;13.678;2023-06-10T01:16:45;8.50;;;8.00;;
49340;SDS011;35209;51.050;13.678;2023-06-10T01:21:47;9.63;;;8.93;;
49340;SDS011;35209;51.050;13.678;2023-06-10T01:26:52;8.35;;;7.85;;
49340;SDS011;35209;51.050;13.678;2023-06-10T01:32:08;8.77;;;8.23;;
49340;SDS011;35209;51.050;13.678;2023-06-10T01:37:23;8.15;;;7.65;;
49340;SDS011;35209;51.050;13.678;2023-06-10T01:42:27;9.20;;;8.70;;
49340;SDS011;35209;51.050;13.678;2023-06-10T01:47:30;10.35;;;9.63;;
49340;SDS011;35209;51.050;13.678;2023-06-10T01:52:33;10.95;;;10.05;;
49340;SDS011;35209;51.050;13.678;2023-06-10T01:57:36;8.73;;;8.13;;
49340;SDS011;35209;51.050;13.678;2023-06-10T02:02:38;9.25;;;8.75;;
49340;SDS011;35209;51.050;13.678;2023-06-10T02:07:39;8.48;;;7.97;;
49340;SDS011;35209;51.050;13.678;2023-06-10T02:12:41;8.65;;;8.05;;
49340;SDS011;35209;51.050;13.678;2023-06-10T02:17:43;8.68;;;7.95;;
49340;SDS011;35209;51.050;13.678;2023-06-10T02:22:46;8.10;;;7.50;;
49340;SDS011;35209;51.050;13.678;2023-06-10T02:27:48;8.90;;;8.30;;
49340;SDS011;35209;51.050;13.678;2023-06-10T02:32:50;7.28;;;6.88;;
49340;SDS011;35209;51.050;13.678;2023-06-10T02:37:54;8.63;;;8.13;;
49340;SDS011;35209;51.050;13.678;2023-06-10T02:42:57;9.48;;;8.60;;
49340;SDS011;35209;51.050;13.678;2023-06-10T02:48:00;8.98;;;8.27;;
49340;SDS011;35209;51.050;13.678;2023-06-10T02:53:03;9.20;;;8.45;;
49340;SDS011;35209;51.050;13.678;2023-06-10T02:58:08;8.68;;;8.18;;
49340;SDS011;35209;51.050;13.678;2023-06-10T03:03:10;9.27;;;8.57;;
49340;SDS011;35209;51.050;13.678;2023-06-10T03:08:21;9.70;;;9.10;;
49340;SDS011;35209;51.050;13.678;2023-06-10T03:13:23;9.85;;;9.25;;
49340;SDS011;35209;51.050;13.678;2023-06-10T03:18:25;8.95;;;8.45;;
49340;SDS011;35209;51.050;13.678;2023-06-10T03:23:28;9.98;;;9.38;;
49340;SDS011;35209;51.050;13.678;2023-06-10T03:28:31;9.55;;;8.82;;
49340;SDS011;35209;51.050;13.678;2023-06-10T03:33:33;10.43;;;9.75;;
49340;SDS011;35209;51.050;13.678;2023-06-10T03:38:35;9.38;;;8.88;;
49340;SDS011;35209;51.050;13.678;2023-06-10T03:43:40;10.48;;;9.68;;
49340;SDS011;35209;51.050;13.678;2023-06-10T03:48:42;10.80;;;9.80;;
49340;SDS011;35209;51.050;13.678;2023-06-10T03:53:44;11.05;;;10.23;;
49340;SDS011;35209;51.050;13.678;2023-06-10T03:58:46;11.13;;;10.05;;
49340;SDS011;35209;51.050;13.678;2023-06-10T04:03:48;9.30;;;8.70;;
49340;SDS011;35209;51.050;13.678;2023-06-10T04:08:52;10.02;;;9.43;;
49340;SDS011;35209;51.050;13.678;2023-06-10T04:13:55;10.43;;;9.73;;
49340;SDS011;35209;51.050;13.678;2023-06-10T04:18:58;11.00;;;10.20;;
49340;SDS011;35209;51.050;13.678;2023-06-10T04:24:00;9.93;;;9.32;;
49340;SDS011;35209;51.050;13.678;2023-06-10T04:29:03;9.50;;;8.90;;
49340;SDS011;35209;51.050;13.678;2023-06-10T04:34:05;10.95;;;10.02;;
49340;SDS011;35209;51.050;13.678;2023-06-10T04:39:10;8.25;;;7.78;;
49340;SDS011;35209;51.050;13.678;2023-06-10T04:44:13;8.98;;;8.38;;
49340;SDS011;35209;51.050;13.678;2023-06-10T04:49:16;11.32;;;10.43;;
49340;SDS011;35209;51.050;13.678;2023-06-10T04:54:17;8.55;;;7.97;;
49340;SDS011;35209;51.050;13.678;2023-06-10T04:59:19;10.45;;;9.65;;
49340;SDS011;35209;51.050;13.678;2023-06-10T05:04:21;10.73;;;9.75;;
49340;SDS011;35209;51.050;13.678;2023-06-10T05:09:23;9.65;;;8.85;;
49340;SDS011;35209;51.050;13.678;2023-06-10T05:14:24;7.63;;;7.15;;
49340;SDS011;35209;51.050;13.678;2023-06-10T05:19:26;7.57;;;7.00;;
49340;SDS011;35209;51.050;13.678;2023-06-10T05:24:28;6.63;;;6.22;;
49340;SDS011;35209;51.050;13.678;2023-06-10T05:29:30;8.15;;;7.50;;
49340;SDS011;35209;51.050;13.678;2023-06-10T05:34:32;8.25;;;7.45;;
49340;SDS011;35209;51.050;13.678;2023-06-10T05:39:35;8.52;;;7.65;;
49340;SDS011;35209;51.050;13.678;2023-06-10T05:44:38;8.10;;;7.50;;
49340;SDS011;35209;51.050;13.678;2023-06-10T05:49:40;6.65;;;6.20;;
49340;SDS011;35209;51.050;13.678;2023-06-10T05:54:42;6.75;;;6.25;;
49340;SDS011;35209;51.050;13.678;2023-06-10T05:59:44;5.90;;;5.50;;
49340;SDS011;35209;51.050;13.678;2023-06-10T06:04:46;6.88;;;6.28;;
49340;SDS011;35209;51.050;13.678;2023-06-10T06:09:47;6.75;;;6.20;;
49340;SDS011;35209;51.050;13.678;2023-06-10T06:14:49;7.28;;;6.82;;
49340;SDS011;35209;51.050;13.678;2023-06-10T06:19:51;6.65;;;6.15;;
49340;SDS011;35209;51.050;13.678;2023-06-10T06:24:53;6.05;;;5.53;;
49340;SDS011;35209;51.050;13.678;2023-06-10T06:29:55;5.25;;;4.88;;
49340;SDS011;35209;51.050;13.678;2023-06-10T06:34:57;5.85;;;5.45;;
49340;SDS011;35209;51.050;13.678;2023-06-10T06:40:00;5.13;;;4.60;;
49340;SDS011;35209;51.050;13.678;2023-06-10T06:45:04;5.65;;;5.20;;
49340;SDS011;35209;51.050;13.678;2023-06-10T06:50:07;5.45;;;4.80;;
49340;SDS011;35209;51.050;13.678;2023-06-10T06:55:09;5.63;;;5.13;;
49340;SDS011;35209;51.050;13.678;2023-06-10T07:00:11;5.20;;;4.80;;
49340;SDS011;35209;51.050;13.678;2023-06-10T07:05:13;4.47;;;4.18;;
49340;SDS011;35209;51.050;13.678;2023-06-10T07:10:15;7.20;;;4.60;;
49340;SDS011;35209;51.050;13.678;2023-06-10T07:15:17;3.97;;;3.78;;
49340;SDS011;35209;51.050;13.678;2023-06-10T07:20:19;4.07;;;3.88;;
49340;SDS011;35209;51.050;13.678;2023-06-10T07:25:21;3.70;;;3.50;;
49340;SDS011;35209;51.050;13.678;2023-06-10T07:30:23;4.38;;;3.97;;
49340;SDS011;35209;51.050;13.678;2023-06-10T07:35:25;4.20;;;3.90;;
49340;SDS011;35209;51.050;13.678;2023-06-10T07:40:27;4.43;;;4.03;;
49340;SDS011;35209;51.050;13.678;2023-06-10T07:45:28;6.78;;;4.45;;
49340;SDS011;35209;51.050;13.678;2023-06-10T07:50:30;4.10;;;3.83;;
49340;SDS011;35209;51.050;13.678;2023-06-10T07:55:32;4.20;;;3.90;;
49340;SDS011;35209;51.050;13.678;2023-06-10T08:00:34;4.85;;;4.40;;
49340;SDS011;35209;51.050;13.678;2023-06-10T08:05:36;4.45;;;4.05;;
49340;SDS011;35209;51.050;13.678;2023-06-10T08:10:38;4.65;;;4.20;;
49340;SDS011;35209;51.050;13.678;2023-06-10T08:15:40;5.65;;;5.15;;
49340;SDS011;35209;51.050;13.678;2023-06-10T08:20:41;5.18;;;4.65;;
49340;SDS011;35209;51.050;13.678;2023-06-10T08:25:43;4.57;;;4.28;;
49340;SDS011;35209;51.050;13.678;2023-06-10T08:30:45;5.38;;;3.75;;
49340;SDS011;35209;51.050;13.678;2023-06-10T08:35:58;4.40;;;4.10;;
49340;SDS011;35209;51.050;13.678;2023-06-10T08:40:59;4.97;;;4.57;;
49340;SDS011;35209;51.050;13.678;2023-06-10T08:46:03;4.80;;;4.50;;
49340;SDS011;35209;51.050;13.678;2023-06-10T08:51:05;4.25;;;3.83;;
49340;SDS011;35209;51.050;13.678;2023-06-10T08:56:07;4.38;;;3.92;;
49340;SDS011;35209;51.050;13.678;2023-06-10T09:01:10;4.65;;;4.15;;
49340;SDS011;35209;51.050;13.678;2023-06-10T09:06:13;4.72;;;3.97;;
49340;SDS011;35209;51.050;13.678;2023-06-10T09:11:14;4.68;;;4.30;;
49340;SDS011;35209;51.050;13.678;2023-06-10T09:16:16;4.70;;;4.30;;
49340;SDS011;35209;51.050;13.678;2023-06-10T09:21:27;4.35;;;4.05;;
49340;SDS011;35209;51.050;13.678;2023-06-10T09:26:29;4.32;;;4.00;;
49340;SDS011;35209;51.050;13.678;2023-06-10T09:31:35;4.30;;;4.00;;
49340;SDS011;35209;51.050;13.678;2023-06-10T09:36:38;8.25;;;4.30;;
49340;SDS011;35209;51.050;13.678;2023-06-10T09:41:41;4.45;;;3.72;;
49340;SDS011;35209;51.050;13.678;2023-06-10T09:46:44;3.58;;;3.33;;
49340;SDS011;35209;51.050;13.678;2023-06-10T09:51:52;4.10;;;3.80;;
49340;SDS011;35209;51.050;13.678;2023-06-10T09:56:55;4.22;;;3.92;;
49340;SDS011;35209;51.050;13.678;2023-06-10T10:01:58;4.45;;;4.03;;
49340;SDS011;35209;51.050;13.678;2023-06-10T10:07:02;3.58;;;3.38;;
49340;SDS011;35209;51.050;13.678;2023-06-10T10:12:06;3.75;;;3.45;;
49340;SDS011;35209;51.050;13.678;2023-06-10T10:17:11;3.65;;;3.45;;
49340;SDS011;35209;51.050;13.678;2023-06-10T10:22:36;3.88;;;3.30;;
49340;SDS011;35209;51.050;13.678;2023-06-10T10:32:58;4.60;;;3.38;;
49340;SDS011;35209;51.050;13.678;2023-06-10T10:38:10;3.88;;;3.58;;
49340;SDS011;35209;51.050;13.678;2023-06-10T10:43:13;4.03;;;3.70;;
49340;SDS011;35209;51.050;13.678;2023-06-10T10:48:17;5.10;;;3.88;;
49340;SDS011;35209;51.050;13.678;2023-06-10T10:53:19;3.67;;;3.38;;
49340;SDS011;35209;51.050;13.678;2023-06-10T10:58:24;5.35;;;3.70;;
49340;SDS011;35209;51.050;13.678;2023-06-10T11:03:29;4.35;;;3.95;;
49340;SDS011;35209;51.050;13.678;2023-06-10T11:13:36;3.55;;;3.25;;
49340;SDS011;35209;51.050;13.678;2023-06-10T11:18:40;7.53;;;3.60;;
49340;SDS011;35209;51.050;13.678;2023-06-10T11:23:43;3.67;;;3.38;;
49340;SDS011;35209;51.050;13.678;2023-06-10T11:33:48;3.38;;;3.08;;
49340;SDS011;35209;51.050;13.678;2023-06-10T11:38:58;3.55;;;3.25;;
49340;SDS011;35209;51.050;13.678;2023-06-10T11:44:02;3.90;;;3.60;;
49340;SDS011;35209;51.050;13.678;2023-06-10T11:49:06;4.10;;;3.78;;
49340;SDS011;35209;51.050;13.678;2023-06-10T11:54:08;4.20;;;3.72;;
49340;SDS011;35209;51.050;13.678;2023-06-10T11:59:11;3.65;;;3.17;;
49340;SDS011;35209;51.050;13.678;2023-06-10T12:04:13;4.35;;;3.58;;
49340;SDS011;35209;51.050;13.678;2023-06-10T12:09:29;3.72;;;3.42;;
49340;SDS011;35209;51.050;13.678;2023-06-10T12:20:08;3.63;;;3.22;;
49340;SDS011;35209;51.050;13.678;2023-06-10T12:25:26;5.82;;;3.72;;
49340;SDS011;35209;51.050;13.678;2023-06-10T12:35:32;3.55;;;3.22;;
49340;SDS011;35209;51.050;13.678;2023-06-10T12:40:36;4.72;;;2.88;;
49340;SDS011;35209;51.050;13.678;2023-06-10T12:45:39;3.40;;;3.20;;
49340;SDS011;35209;51.050;13.678;2023-06-10T12:50:56;3.55;;;3.20;;
49340;SDS011;35209;51.050;13.678;2023-06-10T12:55:59;5.00;;;3.58;;
49340;SDS011;35209;51.050;13.678;2023-06-10T13:01:03;5.95;;;2.50;;
49340;SDS011;35209;51.050;13.678;2023-06-10T13:06:05;4.40;;;3.22;;
49340;SDS011;35209;51.050;13.678;2023-06-10T13:11:08;3.63;;;3.30;;
49340;SDS011;35209;51.050;13.678;2023-06-10T13:16:10;3.70;;;3.40;;
49340;SDS011;35209;51.050;13.678;2023-06-10T13:21:12;4.32;;;3.70;;
49340;SDS011;35209;51.050;13.678;2023-06-10T13:26:14;3.83;;;2.65;;
49340;SDS011;35209;51.050;13.678;2023-06-10T13:31:18;2.55;;;2.35;;
49340;SDS011;35209;51.050;13.678;2023-06-10T13:36:20;5.63;;;3.00;;
49340;SDS011;35209;51.050;13.678;2023-06-10T13:41:22;3.67;;;2.83;;
49340;SDS011;35209;51.050;13.678;2023-06-10T13:46:24;3.00;;;2.80;;
49340;SDS011;35209;51.050;13.678;2023-06-10T13:51:27;2.80;;;2.40;;
49340;SDS011;35209;51.050;13.678;2023-06-10T13:56:29;5.38;;;2.78;;
49340;SDS011;35209;51.050;13.678;2023-06-10T14:01:31;2.95;;;2.60;;
49340;SDS011;35209;51.050;13.678;2023-06-10T14:06:34;2.33;;;2.00;;
49340;SDS011;35209;51.050;13.678;2023-06-10T14:11:35;3.00;;;2.70;;
49340;SDS011;35209;51.050;13.678;2023-06-10T14:16:37;2.88;;;2.38;;
49340;SDS011;35209;51.050;13.678;2023-06-10T14:21:43;2.35;;;2.15;;
49340;SDS011;35209;51.050;13.678;2023-06-10T14:26:45;2.83;;;2.55;;
49340;SDS011;35209;51.050;13.678;2023-06-10T14:31:47;2.55;;;2.30;;
49340;SDS011;35209;51.050;13.678;2023-06-10T14:36:49;3.15;;;2.70;;
49340;SDS011;35209;51.050;13.678;2023-06-10T14:41:51;4.10;;;2.42;;
49340;SDS011;35209;51.050;13.678;2023-06-10T14:46:54;2.60;;;2.40;;
49340;SDS011;35209;51.050;13.678;2023-06-10T14:51:56;3.58;;;2.60;;
49340;SDS011;35209;51.050;13.678;2023-06-10T14:56:57;2.85;;;2.60;;
49340;SDS011;35209;51.050;13.678;2023-06-10T15:01:59;3.22;;;2.35;;
49340;SDS011;35209;51.050;13.678;2023-06-10T15:07:02;3.75;;;2.70;;
49340;SDS011;35209;51.050;13.678;2023-06-10T15:12:04;5.15;;;2.97;;
49340;SDS011;35209;51.050;13.678;2023-06-10T15:17:07;3.20;;;2.95;;
49340;SDS011;35209;51.050;13.678;2023-06-10T15:22:08;3.30;;;2.97;;
49340;SDS011;35209;51.050;13.678;2023-06-10T15:27:12;3.55;;;3.17;;
49340;SDS011;35209;51.050;13.678;2023-06-10T15:32:15;4.18;;;3.17;;
49340;SDS011;35209;51.050;13.678;2023-06-10T15:37:19;3.25;;;2.95;;
49340;SDS011;35209;51.050;13.678;2023-06-10T15:42:22;3.75;;;3.45;;
49340;SDS011;35209;51.050;13.678;2023-06-10T15:47:25;3.88;;;3.55;;
49340;SDS011;35209;51.050;13.678;2023-06-10T15:52:27;4.03;;;3.63;;
49340;SDS011;35209;51.050;13.678;2023-06-10T15:57:28;4.35;;;3.47;;
49340;SDS011;35209;51.050;13.678;2023-06-10T16:02:31;4.55;;;3.30;;
49340;SDS011;35209;51.050;13.678;2023-06-10T16:07:37;3.17;;;2.90;;
49340;SDS011;35209;51.050;13.678;2023-06-10T16:12:39;5.18;;;3.97;;
49340;SDS011;35209;51.050;13.678;2023-06-10T16:17:40;4.28;;;3.78;;
49340;SDS011;35209;51.050;13.678;2023-06-10T16:22:42;5.07;;;3.42;;
49340;SDS011;35209;51.050;13.678;2023-06-10T16:27:44;3.72;;;3.13;;
49340;SDS011;35209;51.050;13.678;2023-06-10T16:32:46;4.13;;;3.30;;
49340;SDS011;35209;51.050;13.678;2023-06-10T16:43:03;5.43;;;3.72;;
49340;SDS011;35209;51.050;13.678;2023-06-10T16:48:05;4.15;;;3.72;;
49340;SDS011;35209;51.050;13.678;2023-06-10T16:53:08;3.35;;;2.95;;
49340;SDS011;35209;51.050;13.678;2023-06-10T16:58:09;4.18;;;3.88;;
49340;SDS011;35209;51.050;13.678;2023-06-10T17:03:12;3.60;;;3.30;;
49340;SDS011;35209;51.050;13.678;2023-06-10T17:08:14;3.83;;;3.35;;
49340;SDS011;35209;51.050;13.678;2023-06-10T17:13:15;4.45;;;3.17;;
49340;SDS011;35209;51.050;13.678;2023-06-10T17:18:17;10.57;;;9.80;;
49340;SDS011;35209;51.050;13.678;2023-06-10T17:23:19;3.85;;;3.55;;
49340;SDS011;35209;51.050;13.678;2023-06-10T17:28:21;5.22;;;4.93;;
49340;SDS011;35209;51.050;13.678;2023-06-10T17:33:23;4.10;;;3.80;;
49340;SDS011;35209;51.050;13.678;2023-06-10T17:38:25;4.43;;;3.55;;
49340;SDS011;35209;51.050;13.678;2023-06-10T17:43:27;3.15;;;2.85;;
49340;SDS011;35209;51.050;13.678;2023-06-10T17:48:28;3.30;;;2.97;;
49340;SDS011;35209;51.050;13.678;2023-06-10T17:53:30;3.85;;;3.55;;
49340;SDS011;35209;51.050;13.678;2023-06-10T17:58:32;4.60;;;3.60;;
49340;SDS011;35209;51.050;13.678;2023-06-10T18:03:34;4.38;;;3.95;;
49340;SDS011;35209;51.050;13.678;2023-06-10T18:08:38;3.90;;;3.50;;
49340;SDS011;35209;51.050;13.678;2023-06-10T18:13:39;3.80;;;3.50;;
49340;SDS011;35209;51.050;13.678;2023-06-10T18:18:41;4.35;;;4.05;;
49340;SDS011;35209;51.050;13.678;2023-06-10T18:23:44;7.13;;;3.78;;
49340;SDS011;35209;51.050;13.678;2023-06-10T18:28:46;4.15;;;3.78;;
49340;SDS011;35209;51.050;13.678;2023-06-10T18:33:48;4.05;;;3.75;;
49340;SDS011;35209;51.050;13.678;2023-06-10T18:38:50;3.85;;;3.55;;
49340;SDS011;35209;51.050;13.678;2023-06-10T18:43:52;4.90;;;4.18;;
49340;SDS011;35209;51.050;13.678;2023-06-10T18:48:53;5.28;;;4.88;;
49340;SDS011;35209;51.050;13.678;2023-06-10T18:53:55;6.65;;;5.50;;
49340;SDS011;35209;51.050;13.678;2023-06-10T18:58:57;7.00;;;6.40;;
49340;SDS011;35209;51.050;13.678;2023-06-10T19:03:59;7.35;;;6.65;;
49340;SDS011;35209;51.050;13.678;2023-06-10T19:09:01;7.57;;;6.85;;
49340;SDS011;35209;51.050;13.678;2023-06-10T19:14:04;7.20;;;6.60;;
49340;SDS011;35209;51.050;13.678;2023-06-10T19:19:08;6.65;;;6.18;;
49340;SDS011;35209;51.050;13.678;2023-06-10T19:24:09;6.68;;;6.18;;
49340;SDS011;35209;51.050;13.678;2023-06-10T19:29:11;7.25;;;6.75;;
49340;SDS011;35209;51.050;13.678;2023-06-10T19:34:13;6.95;;;6.45;;
49340;SDS011;35209;51.050;13.678;2023-06-10T19:39:15;7.03;;;6.30;;
49340;SDS011;35209;51.050;13.678;2023-06-10T19:44:16;8.68;;;8.05;;
49340;SDS011;35209;51.050;13.678;2023-06-10T19:49:18;8.43;;;7.82;;
49340;SDS011;35209;51.050;13.678;2023-06-10T19:54:21;8.32;;;7.57;;
49340;SDS011;35209;51.050;13.678;2023-06-10T19:59:23;8.27;;;7.10;;
49340;SDS011;35209;51.050;13.678;2023-06-10T20:04:24;8.23;;;7.53;;
49340;SDS011;35209;51.050;13.678;2023-06-10T20:09:26;8.27;;;7.47;;
49340;SDS011;35209;51.050;13.678;2023-06-10T20:14:28;8.77;;;8.02;;
49340;SDS011;35209;51.050;13.678;2023-06-10T20:19:30;9.07;;;8.32;;
49340;SDS011;35209;51.050;13.678;2023-06-10T20:24:32;9.68;;;8.95;;
49340;SDS011;35209;51.050;13.678;2023-06-10T20:29:33;10.52;;;9.60;;
49340;SDS011;35209;51.050;13.678;2023-06-10T20:34:35;10.38;;;9.43;;
49340;SDS011;35209;51.050;13.678;2023-06-10T20:39:37;9.77;;;9.00;;
49340;SDS011;35209;51.050;13.678;2023-06-10T20:44:39;9.98;;;9.27;;
49340;SDS011;35209;51.050;13.678;2023-06-10T20:49:41;10.40;;;9.60;;
49340;SDS011;35209;51.050;13.678;2023-06-10T20:54:42;11.07;;;9.45;;
49340;SDS011;35209;51.050;13.678;2023-06-10T20:59:44;10.88;;;9.85;;
49340;SDS011;35209;51.050;13.678;2023-06-10T21:04:46;13.02;;;12.13;;
49340;SDS011;35209;51.050;13.678;2023-06-10T21:09:48;12.82;;;11.73;;
49340;SDS011;35209;51.050;13.678;2023-06-10T21:14:49;14.93;;;13.77;;
49340;SDS011;35209;51.050;13.678;2023-06-10T21:19:51;15.70;;;14.15;;
49340;SDS011;35209;51.050;13.678;2023-06-10T21:24:53;16.33;;;15.20;;
49340;SDS011;35209;51.050;13.678;2023-06-10T21:29:54;16.55;;;15.13;;
49340;SDS011;35209;51.050;13.678;2023-06-10T21:34:57;15.27;;;14.10;;
49340;SDS011;35209;51.050;13.678;2023-06-10T21:39:58;13.98;;;12.98;;
49340;SDS011;35209;51.050;13.678;2023-06-10T21:45:00;13.43;;;12.05;;
49340;SDS011;35209;51.050;13.678;2023-06-10T21:50:02;13.68;;;12.57;;
49340;SDS011;35209;51.050;13.678;2023-06-10T21:55:04;11.50;;;10.70;;
49340;SDS011;35209;51.050;13.678;2023-06-10T22:00:06;11.00;;;10.10;;
49340;SDS011;35209;51.050;13.678;2023-06-10T22:05:15;11.15;;;10.02;;
49340;SDS011;35209;51.050;13.678;2023-06-10T22:10:17;11.82;;;10.63;;
49340;SDS011;35209;51.050;13.678;2023-06-10T22:15:19;10.38;;;9.68;;
49340;SDS011;35209;51.050;13.678;2023-06-10T22:20:21;10.52;;;9.52;;
49340;SDS011;35209;51.050;13.678;2023-06-10T22:25:23;8.13;;;7.40;;
49340;SDS011;35209;51.050;13.678;2023-06-10T22:30:24;7.82;;;7.25;;
49340;SDS011;35209;51.050;13.678;2023-06-10T22:35:26;8.25;;;7.57;;
49340;SDS011;35209;51.050;13.678;2023-06-10T22:40:28;6.97;;;6.47;;
49340;SDS011;35209;51.050;13.678;2023-06-10T22:45:30;7.82;;;6.78;;
49340;SDS011;35209;51.050;13.678;2023-06-10T22:50:31;6.68;;;6.18;;
49340;SDS011;35209;51.050;13.678;2023-06-10T22:55:33;11.55;;;6.97;;
49340;SDS011;35209;51.050;13.678;2023-06-10T23:00:35;6.53;;;5.93;;
49340;SDS011;35209;51.050;13.678;2023-06-10T23:05:36;6.30;;;5.43;;
49340;SDS011;35209;51.050;13.678;2023-06-10T23:10:38;5.38;;;4.90;;
49340;SDS011;35209;51.050;13.678;2023-06-10T23:15:41;5.50;;;5.10;;
49340;SDS011;35209;51.050;13.678;2023-06-10T23:20:43;5.57;;;4.90;;
49340;SDS011;35209;51.050;13.678;2023-06-10T23:25:45;5.10;;;4.70;;
49340;SDS011;35209;51.050;13.678;2023-06-10T23:30:47;5.78;;;5.10;;
49340;SDS011;35209;51.050;13.678;2023-06-10T23:35:49;6.20;;;4.93;;
49340;SDS011;35209;51.050;13.678;2023-06-10T23:40:51;5.95;;;5.32;;
49340;SDS011;35209;51.050;13.678;2023-06-10T23:45:52;5.60;;;5.20;;
49340;SDS011;35209;51.050;13.678;2023-06-10T23:50:54;6.78;;;6.28;;
49340;SDS011;35209;51.050;13.678;2023-06-10T23:55:56;6.75;;;6.15;;
